Lochgelly, West Virginia
Current Conditions -  °F | °C
As of 10:51 PM on Monday 22 Dec 2014 (Local Time) from KBKW Reporting Station
Light Rain Light Rain  
Wind Chill: 30°   Ceiling: 700
Heat Index: 38°   Visibility: 10mi
Dew Point: 35°   Wind: 12mph
Humidity: 89%   Direction: 140°SE
Pressure: 29.92"   Gusts: 26mph
Location:  38.01°N, 81.15°W
Report Text: KBKW 230351Z AUTO 14010G23KT 10SM -RA OVC007 03/02 A2992 RMK AO2 RAB34 SLP149 P0000 T00330017
Loading
Personal Weather Stations






























Interactive Weather Map New forecast layout! Learn more

10-Day Weather Forecast

Advertisements
Track Severe Weather on mobile